This is the latest recevied weather packets stored in our database for station/object LU3GHF-13. If no packets are shown the sender has not sent any weather packets the latest 10 day(s).
| Time | Temp. | Humidity | Pressure | Rain* | Wind** | Luminosity | Snow |
|---|---|---|---|---|---|---|---|
| 1788045767 | 20.56° C | 89% | 1005 hPa | - | - | - | - |
| 1788045153 | 21.11° C | 88% | 1004.5 hPa | - | - | - | - |
| 1788044516 | 21.11° C | 88% | 1004.7 hPa | - | - | - | - |
| 1788043870 | 22.22° C | 82% | 1004.5 hPa | - | - | - | - |
| 1788043242 | 22.78° C | 81% | 1004.2 hPa | - | - | - | - |
| 1788042604 | 23.33° C | 81% | 1003.4 hPa | - | - | - | - |
| 1788041960 | 22.78° C | 82% | 1003.7 hPa | - | - | - | - |
| 1788041355 | 22.78° C | 82% | 1003.6 hPa | - | - | - | - |
| 1788040724 | 20.56° C | 88% | 1003.7 hPa | - | - | - | - |
| 1788040093 | 20.56° C | 88% | 1003.6 hPa | - | - | - | - |
| 1788039464 | 20.56° C | 88% | 1003.6 hPa | - | - | - | - |
| 1788038823 | 20.56° C | 87% | 1003.6 hPa | - | - | - | - |
| 1788038198 | 20.56° C | 87% | 1003.5 hPa | - | - | - | - |
| 1788037553 | 20.56° C | 86% | 1003.6 hPa | - | - | - | - |
| 1788036904 | 21.11° C | 86% | 1003.4 hPa | - | - | - | - |
| 1788035670 | 20.56° C | 86% | 1003.3 hPa | - | - | - | - |
| 1788035064 | 20.56° C | 86% | 1003.3 hPa | - | - | - | - |
| 1788034462 | 21.11° C | 85% | 1003.2 hPa | - | - | - | - |
| 1788033820 | 20.56° C | 85% | 1003.1 hPa | - | - | - | - |
| 1788033206 | 20.56° C | 85% | 1003 hPa | - | - | - | - |
| 1788032577 | 20.56° C | 86% | 1002.9 hPa | - | - | - | - |
| 1788031960 | 20.56° C | 86% | 1002.9 hPa | - | - | - | - |
| 1788031321 | 20.56° C | 85% | 1002.9 hPa | - | - | - | - |
| 1788030688 | 20.56° C | 86% | 1002.9 hPa | - | - | - | - |
| 1788028796 | 20° C | 88% | 1002.9 hPa | - | - | - | - |
* Rain since midnight (hover to see other rain measurements)
** Current wind speed in m/s (hover to see current wind gust speed)